Terminal Aerodrome Forecast
Issued by NWS

Home | Current Version | Previous Version | Text Only | Print | Product List | Glossary On
Versions: 1 2 3 4 5 6 7 8 9 10 11 12 13 14 15 16 17 18 19 20 21 22 23 24 25 26 27 28 29 30 31 32
500
FTUS42 KILM 222320
TAFCRE
TAF
KCRE 222320Z 2300/2324 08004KT P6SM VCSH FEW080 OVC110
      TEMPO 2300/2302 4SM -SHRA BKN015
     FM230200 19011G19KT 5SM TSRA BR BKN020CB OVC030
      TEMPO 2302/2305 VRB30G45KT 1SM +TSRA BR BKN007 OVC015CB
     FM230500 24010KT P6SM SCT030 BKN080
      TEMPO 2306/2309 BKN010
     FM231100 22007KT P6SM BKN250
     FM231400 22010KT P6SM VCSH SCT025 OVC100=

USA.gov is the U.S. government's official web portal to all federal, state and local government web resources and services.